Poplar, California
Current Conditions -  °F | °C
As of 10:55 AM on Tuesday 27 Jan 2015 (Local Time) from KPTV Reporting Station
Clear Clear  
Wind Chill: 16°   Ceiling: Unl
Heat Index: 16°   Visibility: 10mi
Dew Point: 11°   Wind: 8mph
Humidity: 72%   Direction: 230°SW
Pressure: 30.24"   Gusts: NA
Location:  36.0318°N, 118.965°W
Report Text: KPTV 271855Z AUTO 23007KT 10SM CLR 16/11 A3024 RMK AO1
Loading
Personal Weather Stations






























Interactive Weather Map New forecast layout! Learn more

10-Day Weather Forecast

Advertisements
Track Severe Weather on mobile